Airfield :
LOGIN :

Register | Disclaimer

   EN    FR    IT 

 










Legend :    VFR   Marginal VFR   IFR   Intensive IFR   Very Intensive IFR
Visi :
Ceiling :
>= 8 km
>= 3000ft
5 to 8 km
1000 to 3000 ft
1500m to 5 km
500 to 1000 ft
800 to 1500m
200 to 500 ft
< 800m
< 200 ft
Symbols :   Thunderstorms  Fog  Heavy snow  Heavy precipitations  Wind > 20 kt
SIGMETs :     Misc.  Thunderstorms  Icing  Turbulence  Mountain Waves  Volcanic Ashes






- Airport Elevation : 16 ft
- IATA code : EAS


LESO - San Sebastian Fuenterrabia

CURRENT METAR :
  • 032300Z AUTO 16004KT 130V190 9999 SCT033 SCT039 OVC048 20/17 Q1020

EXPIRED METARs :
  • 032230Z AUTO VRB01KT 9000 -RA FEW037 SCT047 OVC056 20/17 Q1020
  • 032200Z AUTO 16003KT 9999 SCT050 BKN060 20/17 Q1020
  • 032130Z AUTO VRB02KT 9999 FEW024 SCT050 BKN059 21/17 Q1020
  • 032100Z AUTO 03005KT 330V070 9999 SCT029 SCT044 BKN050 21/17 Q1019
  • 032030Z AUTO 03005KT 340V070 9999 SCT047 SCT060 21/16 Q1019

TAF TAF LESO
Valid from the 03 at 18:00 until the 04 at 18:00 UTC


031700Z 0318/0418 32007KT 9999 SCT018 SCT025 TX24/0414Z TN19/0404Z
PROB40
TEMPO 0400/0409 RA
PROB30
TEMPO 0405/0410 BKN014
PROB30
TEMPO 0413/0417 02010KT



MET'MAP, your aeronautical weather chart ! - Copyright ORBIFLY December 2007 - Disclaimer

ORBIFLY MET'MAP TEAM :

Programming & Development : Alexandra Zaïnal
Concept & original design : Baudouin d'Aumeries
Assistance for programming : Marc-Olivier Méhu
Technical & hardware support : Manuel Goepfert

Contact : metmap@orbifly.com




SOURCES & CREDITS :

   NOAA